Hauptseite
METAR-TAF:

METAR-TAF

Flughäfen :

Flughafen Sylt

Westerland, Deutschland

Breite: 54-55N, Länge: 008-21E, Höhe: 16 m

Beobachtung

Neuester Wetterbericht von vor 23 Minuten, um 00:20 UTC
Wind 12 kt aus West/Nordwest
Temperatur 7°C
Luftfeuchtigkeit 70%
Luftdruck 1014 hPa
Sichtweite 10 km oder mehr

METAR: EDXW 080020Z AUTO 29012KT 9999 // FEW026/// SCT031/// 07/02 Q1014

Zeit: 02:43 (00:43 UTC)

Prognose

Neuester Wetterbericht von vor 10 Stunden und 43 Minuten, um 14:00 UTC
Gültige Prognose vom 07 um 15 UTC bis 07 um 21 UTC
Wind 15 kt aus West
Sichtweite 10 km oder mehr
Aufgelockert bewölkt in der Höhe von 3000 ft
Zeitweise
vom 07 um 15 UTC bis 07 um 21 UTC
Wind 20 kt aus West/Nordwest, Böen bis zu 30 kt

TAF: EDXW 071400Z 0715/0721 27015KT 9999 SCT030 TEMPO 0715/0721 29020G30KT

Wetterbeobachtungen und Prognosen von mehr als 4000 Flughäfen (METAR und TAF Bericht).

Die verfügbaren Stationen werden durch gelbe und rote Markierungen auf der Karte dargestellt.

Führen Sie die Maus auf sie, um den Namen der Station zu sehen.

Darauf klicken, um die Beobachtung von Wetterbeobachtungen und Prognosen zu sehen.

Um die Karte zu ändern : klicken Sie auf den grünen Tasten mit einem schwarzen Kreuz Zum Vergrößern, auf den grünen Button mit einem Gedankenstrich zu verkleinern, oder auf die grünen Pfeile für benachbarte Karten.


METAR-TAF: